Time;durP1;ratioP1;P1;durP2;ratioP2;P2;SDS_P1;SDS_P2;PMS_P1;PMS_P2;Temp;Humidity;BMP_temperature;BMP_pressure;BME280_temperature;BME280_humidity;BME280_pressure;Samples;Min_cycle;Max_cycle;Signal;HPM_P1;HPM_P2
2021/05/29 00:00:45;;;;;;;3.58;1.63;;;12.80;99.90;;;;;;5073132;28;20029;-82
2021/05/29 00:03:11;;;;;;;6.90;1.70;;;12.80;99.90;;;;;;5073130;28;20099;-82
2021/05/29 00:05:37;;;;;;;3.58;1.60;;;12.70;99.90;;;;;;5073095;28;20428;-82
2021/05/29 00:08:03;;;;;;;1.90;1.33;;;12.60;99.90;;;;;;5071861;28;20025;-82
2021/05/29 00:10:29;;;;;;;5.25;1.70;;;12.50;99.90;;;;;;5071815;28;20067;-82
2021/05/29 00:12:55;;;;;;;3.42;1.63;;;12.40;99.90;;;;;;5071788;28;20028;-81
2021/05/29 00:15:22;;;;;;;3.95;1.50;;;12.40;99.90;;;;;;5072831;28;20025;-82
2021/05/29 00:17:48;;;;;;;6.93;1.88;;;12.60;99.90;;;;;;5071734;28;20044;-82
2021/05/29 00:20:14;;;;;;;5.35;1.60;;;12.70;99.90;;;;;;5072976;28;20052;-82
2021/05/29 00:22:39;;;;;;;3.75;1.70;;;12.70;99.90;;;;;;5072971;28;20134;-82
2021/05/29 00:25:06;;;;;;;1.70;1.50;;;12.80;99.90;;;;;;5074685;28;20066;-82
2021/05/29 00:27:32;;;;;;;2.50;1.27;;;12.90;99.90;;;;;;5077157;28;20051;-82
2021/05/29 00:29:58;;;;;;;2.65;1.73;;;12.80;99.90;;;;;;5076848;28;20495;-82
2021/05/29 00:32:24;;;;;;;5.40;1.60;;;12.50;99.90;;;;;;5075490;28;20025;-82
2021/05/29 00:34:50;;;;;;;2.20;1.50;;;12.70;99.90;;;;;;5075239;28;20047;-82
2021/05/29 00:37:15;;;;;;;3.15;1.83;;;12.60;99.90;;;;;;5076696;28;20025;-82
2021/05/29 00:39:41;;;;;;;3.80;1.50;;;12.70;99.90;;;;;;5076913;28;20029;-82
2021/05/29 00:42:08;;;;;;;5.32;1.60;;;12.70;99.90;;;;;;5075332;28;20027;-82
2021/05/29 00:44:54;;;;;;;2.80;1.58;;;12.40;99.90;;;;;;5076566;28;20108;-82
2021/05/29 00:47:25;;;;;;;2.38;1.25;;;12.30;99.90;;;;;;5076488;28;20498;-82
2021/05/29 00:49:52;;;;;;;5.20;1.63;;;12.10;99.90;;;;;;5075181;28;20193;-82
2021/05/29 00:52:19;;;;;;;4.05;1.55;;;12.10;99.90;;;;;;5076429;28;20457;-82
2021/05/29 00:54:45;;;;;;;4.60;1.50;;;12.10;99.90;;;;;;5076364;28;20051;-82
2021/05/29 00:57:13;;;;;;;2.15;1.52;;;12.20;99.90;;;;;;5075070;28;20080;-82
2021/05/29 00:59:39;;;;;;;4.25;1.63;;;12.40;99.90;;;;;;5076276;28;20145;-82
2021/05/29 01:02:06;;;;;;;2.92;1.70;;;12.40;99.90;;;;;;5076251;28;20149;-82
2021/05/29 01:04:32;;;;;;;1.90;1.52;;;12.30;99.90;;;;;;5074931;28;20388;-82
2021/05/29 01:06:58;;;;;;;2.95;1.63;;;12.40;99.90;;;;;;5076186;28;20020;-82
2021/05/29 01:09:24;;;;;;;2.20;1.50;;;12.60;99.90;;;;;;5076114;28;20021;-82
2021/05/29 01:11:52;;;;;;;2.60;1.60;;;12.70;99.90;;;;;;5074829;28;20025;-82
2021/05/29 01:14:18;;;;;;;6.32;1.83;;;12.60;99.90;;;;;;5075986;28;20028;-82
2021/05/29 01:16:59;;;;;;;5.80;1.67;;;12.50;99.90;;;;;;5074606;28;20020;-82
2021/05/29 01:19:24;;;;;;;2.97;1.75;;;12.50;99.90;;;;;;5075926;28;20028;-82
2021/05/29 01:21:51;;;;;;;4.43;1.70;;;12.60;99.90;;;;;;5074607;28;20025;-82
2021/05/29 01:24:22;;;;;;;3.05;1.83;;;12.40;99.90;;;;;;5074565;28;20024;-82
2021/05/29 01:26:48;;;;;;;6.38;1.80;;;12.20;99.90;;;;;;5074591;28;20491;-82
2021/05/29 01:29:15;;;;;;;5.03;1.73;;;12.10;99.90;;;;;;5075738;28;20384;-82
2021/05/29 01:31:45;;;;;;;4.25;1.90;;;12.10;99.90;;;;;;5075700;28;20070;-82
2021/05/29 01:34:13;;;;;;;2.25;1.77;;;12.10;99.90;;;;;;5075496;28;20458;-82
2021/05/29 01:36:40;;;;;;;3.15;1.92;;;12.30;99.90;;;;;;5073265;28;20115;-82
2021/05/29 01:39:10;;;;;;;2.55;1.58;;;12.30;99.90;;;;;;5075574;28;20472;-82
2021/05/29 01:41:37;;;;;;;3.00;1.92;;;12.50;99.90;;;;;;5074269;28;20021;-82
2021/05/29 01:44:03;;;;;;;3.08;1.70;;;12.50;99.90;;;;;;5075443;28;20043;-82
2021/05/29 01:46:28;;;;;;;5.22;1.80;;;12.60;99.90;;;;;;5074013;28;20029;-82
2021/05/29 01:48:54;;;;;;;2.75;1.75;;;12.40;99.90;;;;;;5075621;28;20024;-82
2021/05/29 01:51:22;;;;;;;2.38;1.58;;;12.20;99.90;;;;;;5075351;28;20024;-82
2021/05/29 01:53:49;;;;;;;3.30;1.70;;;12.30;99.90;;;;;;5075295;28;20103;-82
2021/05/29 01:56:15;;;;;;;2.20;1.50;;;12.20;99.90;;;;;;5075196;28;20407;-82
2021/05/29 01:58:43;;;;;;;2.03;1.80;;;12.20;99.90;;;;;;5073979;28;20028;-82
2021/05/29 02:01:14;;;;;;;2.72;1.60;;;12.30;99.90;;;;;;5075151;28;20027;-82
2021/05/29 02:03:44;;;;;;;2.33;1.60;;;12.40;99.90;;;;;;5073886;28;20365;-82
2021/05/29 02:06:09;;;;;;;3.53;1.60;;;12.60;99.90;;;;;;5075089;28;20047;-82
2021/05/29 02:08:35;;;;;;;6.95;1.90;;;12.40;99.90;;;;;;5073751;28;20029;-82
2021/05/29 02:11:01;;;;;;;3.08;1.70;;;12.20;99.90;;;;;;5074983;28;20508;-82
2021/05/29 02:13:36;;;;;;;2.20;1.52;;;12.20;99.90;;;;;;5073678;28;20123;-82
2021/05/29 02:16:04;;;;;;;2.65;1.65;;;12.30;99.90;;;;;;5058009;28;20120;-82
2021/05/29 02:18:30;;;;;;;4.80;1.80;;;12.40;99.90;;;;;;5073506;28;20487;-82
2021/05/29 02:21:02;;;;;;;2.30;1.65;;;12.10;99.90;;;;;;5075304;28;20142;-82
2021/05/29 02:23:33;;;;;;;2.60;2.10;;;12.20;99.90;;;;;;5075323;28;20023;-82
2021/05/29 02:26:03;;;;;;;3.70;1.98;;;12.40;99.90;;;;;;5074989;28;20016;-82
2021/05/29 02:28:29;;;;;;;3.25;1.58;;;12.40;99.90;;;;;;5074599;28;20387;-82
2021/05/29 02:30:55;;;;;;;3.67;1.60;;;12.30;99.90;;;;;;5073294;28;20495;-82
2021/05/29 02:33:22;;;;;;;2.30;1.60;;;12.20;99.90;;;;;;5074744;28;20037;-82
2021/05/29 02:35:48;;;;;;;2.58;1.60;;;12.10;99.90;;;;;;5074408;28;20064;-82
2021/05/29 02:38:14;;;;;;;3.03;1.75;;;12.00;99.90;;;;;;5074672;28;20031;-82
2021/05/29 02:40:39;;;;;;;5.10;1.52;;;12.10;99.90;;;;;;5074350;28;20024;-82
2021/05/29 02:43:05;;;;;;;3.05;1.58;;;12.10;99.90;;;;;;5073061;28;20384;-82
2021/05/29 02:45:31;;;;;;;2.67;1.85;;;12.10;99.90;;;;;;5073022;28;20024;-82
2021/05/29 02:47:57;;;;;;;4.95;2.00;;;12.20;99.90;;;;;;5074051;28;20024;-82
2021/05/29 02:50:24;;;;;;;2.22;1.65;;;12.30;99.90;;;;;;5074185;28;20612;-82
2021/05/29 02:52:50;;;;;;;4.93;1.80;;;12.40;99.90;;;;;;5074411;28;20103;-82
2021/05/29 02:55:23;;;;;;;3.70;1.55;;;12.40;99.90;;;;;;5074047;28;20103;-82
2021/05/29 02:57:56;;;;;;;4.13;1.83;;;12.50;99.90;;;;;;5074075;28;20480;-82
2021/05/29 03:00:24;;;;;;;2.00;1.52;;;12.40;99.90;;;;;;5072775;28;20050;-82
2021/05/29 03:02:50;;;;;;;5.15;1.83;;;12.10;99.90;;;;;;5072955;28;20380;-82
2021/05/29 03:05:18;;;;;;;2.75;1.80;;;12.10;99.90;;;;;;5073836;28;20031;-82
2021/05/29 03:07:46;;;;;;;2.88;1.55;;;12.20;99.90;;;;;;5073877;28;20021;-82
2021/05/29 03:10:13;;;;;;;2.90;1.70;;;12.30;99.90;;;;;;5072529;28;20028;-82
2021/05/29 03:12:39;;;;;;;2.47;1.50;;;12.40;99.90;;;;;;5073813;28;20028;-82
2021/05/29 03:15:11;;;;;;;2.30;1.60;;;12.20;99.90;;;;;;5073628;28;20107;-82
2021/05/29 03:17:36;;;;;;;4.63;1.60;;;12.20;99.90;;;;;;5056015;28;20547;-82
2021/05/29 03:20:05;;;;;;;3.65;1.77;;;12.00;99.90;;;;;;5074184;28;20108;-82
2021/05/29 03:22:31;;;;;;;6.43;2.05;;;11.90;99.90;;;;;;5072295;28;20021;-82
2021/05/29 03:24:57;;;;;;;2.05;1.70;;;11.60;99.90;;;;;;5072319;28;20024;-82
2021/05/29 03:27:22;;;;;;;4.05;2.00;;;11.50;99.90;;;;;;5072252;28;20044;-82
2021/05/29 03:29:48;;;;;;;5.18;1.70;;;11.70;99.90;;;;;;5073800;28;20080;-82
2021/05/29 03:32:14;;;;;;;3.17;1.55;;;11.80;99.90;;;;;;5072182;28;20107;-82
2021/05/29 03:34:41;;;;;;;2.15;1.40;;;11.80;99.90;;;;;;5073318;28;20462;-82
2021/05/29 03:37:08;;;;;;;1.90;1.50;;;12.10;99.90;;;;;;5072065;28;20044;-82
2021/05/29 03:39:34;;;;;;;2.38;1.70;;;11.90;99.90;;;;;;5072123;28;20111;-82
2021/05/29 03:42:00;;;;;;;1.73;1.50;;;11.80;99.90;;;;;;5073394;28;20025;-82
2021/05/29 03:44:26;;;;;;;3.90;1.60;;;11.90;99.90;;;;;;5073350;28;20156;-82
2021/05/29 03:46:52;;;;;;;2.78;1.70;;;11.70;99.90;;;;;;5071941;28;20036;-82
2021/05/29 03:49:17;;;;;;;7.18;1.70;;;11.70;99.90;;;;;;5072297;28;20028;-82
2021/05/29 03:51:43;;;;;;;4.63;1.65;;;11.50;99.90;;;;;;5071952;28;20476;-82
2021/05/29 03:54:09;;;;;;;2.55;1.60;;;11.50;99.90;;;;;;5073224;28;20020;-82
2021/05/29 03:56:34;;;;;;;3.53;1.83;;;11.60;99.90;;;;;;5071864;28;20413;-82
2021/05/29 03:59:03;;;;;;;4.07;1.65;;;11.60;99.90;;;;;;5071343;28;20024;-82
2021/05/29 04:01:28;;;;;;;2.17;1.50;;;11.50;99.90;;;;;;5071927;28;20388;-82
2021/05/29 04:03:54;;;;;;;3.13;1.65;;;11.50;99.90;;;;;;5071935;28;20027;-82
2021/05/29 04:06:20;;;;;;;5.70;1.77;;;11.60;99.90;;;;;;5071677;28;20526;-82
2021/05/29 04:08:45;;;;;;;6.95;1.75;;;11.60;99.90;;;;;;5071804;28;20062;-82
2021/05/29 04:11:11;;;;;;;4.85;1.80;;;11.60;99.90;;;;;;5071749;28;20032;-82
2021/05/29 04:13:37;;;;;;;2.55;1.60;;;11.50;99.90;;;;;;5071779;28;20024;-82
2021/05/29 04:16:03;;;;;;;4.78;1.70;;;11.40;99.90;;;;;;5071654;28;20037;-82
2021/05/29 04:18:28;;;;;;;3.38;1.90;;;11.60;99.90;;;;;;5071763;28;20051;-82
2021/05/29 04:20:54;;;;;;;2.50;1.30;;;11.70;99.90;;;;;;5071714;28;20361;-82
2021/05/29 04:23:19;;;;;;;2.92;1.75;;;11.80;99.90;;;;;;5073241;28;20027;-82
2021/05/29 04:25:45;;;;;;;3.08;1.55;;;11.80;99.90;;;;;;5073499;28;20055;-82
2021/05/29 04:28:11;;;;;;;3.38;1.60;;;11.90;99.90;;;;;;5072980;28;20035;-82
2021/05/29 04:30:37;;;;;;;4.07;1.90;;;11.90;99.90;;;;;;5071602;28;20084;-82
2021/05/29 04:33:03;;;;;;;2.75;1.42;;;11.90;99.90;;;;;;5072640;28;20044;-82
2021/05/29 04:35:29;;;;;;;2.65;1.70;;;12.10;99.90;;;;;;5073383;28;20029;-82
2021/05/29 04:37:55;;;;;;;6.15;1.83;;;12.10;99.90;;;;;;5073441;28;20027;-82
2021/05/29 04:40:24;;;;;;;4.57;1.83;;;12.20;99.90;;;;;;5071560;28;20052;-82
2021/05/29 04:42:50;;;;;;;5.25;1.98;;;12.00;99.90;;;;;;5071550;28;20430;-82
2021/05/29 04:45:17;;;;;;;5.60;2.03;;;12.10;99.90;;;;;;5071490;28;20119;-82
2021/05/29 04:47:43;;;;;;;2.78;1.98;;;12.30;99.90;;;;;;5072685;28;20033;-82
2021/05/29 04:50:10;;;;;;;4.90;2.20;;;12.40;99.90;;;;;;5072703;28;20033;-82
2021/05/29 04:52:36;;;;;;;6.38;1.75;;;12.30;99.90;;;;;;5071466;28;20116;-82
2021/05/29 04:55:03;;;;;;;3.22;1.92;;;12.40;99.90;;;;;;5071278;28;20024;-82
2021/05/29 04:57:29;;;;;;;4.05;1.92;;;12.50;99.90;;;;;;5072643;28;20028;-82
2021/05/29 04:59:55;;;;;;;3.97;2.10;;;12.70;99.90;;;;;;5072587;28;20032;-82
2021/05/29 05:02:20;;;;;;;2.72;2.10;;;12.80;99.90;;;;;;5072863;28;20052;-82
2021/05/29 05:04:46;;;;;;;5.57;1.92;;;12.80;99.90;;;;;;5071347;28;20047;-82
2021/05/29 05:07:12;;;;;;;3.78;2.20;;;12.90;99.90;;;;;;5071291;28;20491;-82
2021/05/29 05:09:38;;;;;;;5.20;2.35;;;12.90;99.90;;;;;;5071265;28;20461;-82
2021/05/29 05:12:04;;;;;;;4.78;2.28;;;12.90;99.90;;;;;;5075218;28;20032;-82
2021/05/29 05:14:30;;;;;;;6.68;2.33;;;12.90;99.90;;;;;;5075950;28;20028;-82
2021/05/29 05:16:55;;;;;;;4.82;2.20;;;12.80;99.90;;;;;;5074663;28;20024;-82
2021/05/29 05:19:21;;;;;;;7.28;2.20;;;12.90;99.90;;;;;;5075926;28;20035;-82
2021/05/29 05:21:47;;;;;;;3.28;1.98;;;12.90;99.90;;;;;;5074663;28;20028;-82
2021/05/29 05:24:12;;;;;;;3.97;2.30;;;12.90;99.90;;;;;;5076130;28;20074;-82
2021/05/29 05:26:38;;;;;;;4.00;2.15;;;12.90;99.90;;;;;;5075818;28;20035;-82
2021/05/29 05:29:04;;;;;;;3.08;1.88;;;13.00;99.90;;;;;;5074824;28;20463;-82
2021/05/29 05:31:31;;;;;;;3.25;2.00;;;13.00;99.90;;;;;;5076062;28;20174;-82
2021/05/29 05:33:57;;;;;;;5.45;2.33;;;13.10;99.90;;;;;;5074271;28;20620;-82
2021/05/29 05:36:22;;;;;;;2.60;2.17;;;13.10;99.90;;;;;;5074325;28;20115;-82
2021/05/29 05:38:49;;;;;;;3.05;2.10;;;13.10;99.90;;;;;;5074343;28;20028;-82
2021/05/29 05:41:15;;;;;;;3.72;2.20;;;13.10;99.90;;;;;;5074319;28;20017;-82
2021/05/29 05:43:41;;;;;;;5.10;1.85;;;13.10;99.90;;;;;;5074237;28;20484;-82
2021/05/29 05:46:10;;;;;;;2.38;1.70;;;13.30;99.90;;;;;;5075697;28;20384;-82
2021/05/29 05:48:37;;;;;;;3.53;1.85;;;13.30;99.90;;;;;;5074165;28;20086;-82
2021/05/29 05:51:03;;;;;;;5.05;2.20;;;13.30;99.90;;;;;;5075359;28;20024;-82
2021/05/29 05:53:33;;;;;;;3.15;1.92;;;13.30;99.90;;;;;;5074061;28;20024;-82
2021/05/29 05:56:02;;;;;;;7.95;2.25;;;13.30;99.90;;;;;;5075224;28;20082;-82
2021/05/29 05:58:31;;;;;;;2.65;1.70;;;13.40;99.90;;;;;;5075160;28;20017;-82
2021/05/29 06:00:58;;;;;;;5.43;2.03;;;13.40;99.90;;;;;;5073879;28;20025;-82
2021/05/29 06:03:24;;;;;;;3.35;1.80;;;13.40;99.90;;;;;;5073957;28;20086;-82
2021/05/29 06:05:50;;;;;;;2.40;1.65;;;13.50;99.90;;;;;;5075057;28;20024;-82
2021/05/29 06:08:16;;;;;;;7.63;1.88;;;13.60;99.90;;;;;;5074990;28;20036;-82
2021/05/29 06:10:43;;;;;;;2.63;1.35;;;13.60;99.90;;;;;;5074939;28;20529;-82
2021/05/29 06:13:14;;;;;;;1.55;1.15;;;13.70;99.90;;;;;;5074950;28;20028;-82
2021/05/29 06:21:04;;;;;;;3.33;1.80;;;13.90;99.90;;;;;;5074579;28;20028;-82
2021/05/29 06:23:30;;;;;;;1.35;1.10;;;14.00;99.90;;;;;;5074547;28;20078;-82
2021/05/29 06:25:55;;;;;;;3.80;1.48;;;14.00;99.90;;;;;;5073444;28;20498;-82
2021/05/29 06:28:21;;;;;;;3.67;1.40;;;14.00;99.90;;;;;;5073637;28;20068;-82
2021/05/29 06:30:47;;;;;;;2.83;1.23;;;14.00;99.90;;;;;;5074593;28;20365;-82
2021/05/29 06:33:13;;;;;;;4.72;1.30;;;14.10;99.90;;;;;;5074566;28;20563;-82
2021/05/29 06:35:38;;;;;;;3.42;1.20;;;14.20;99.90;;;;;;5074745;28;20495;-82
2021/05/29 06:38:05;;;;;;;3.10;1.20;;;14.30;99.90;;;;;;5074454;28;20099;-82
2021/05/29 06:40:31;;;;;;;2.50;1.25;;;14.30;99.90;;;;;;5056757;28;20028;-81
2021/05/29 06:42:57;;;;;;;6.88;1.33;;;14.30;99.90;;;;;;5073052;28;20021;-81
2021/05/29 06:45:23;;;;;;;2.90;1.48;;;14.30;99.90;;;;;;5073083;28;20077;-82
2021/05/29 06:47:50;;;;;;;2.60;1.48;;;14.40;99.90;;;;;;5072876;28;20031;-82
2021/05/29 06:50:16;;;;;;;2.28;1.20;;;14.50;99.90;;;;;;5074191;28;20030;-81
2021/05/29 06:52:45;;;;;;;8.50;1.73;;;14.50;99.90;;;;;;5072892;28;20066;-84
2021/05/29 07:00:40;;;;;;;1.75;1.30;;;14.70;99.90;;;;;;5074622;28;20036;-83
2021/05/29 07:03:06;;;;;;;3.80;1.30;;;14.80;99.90;;;;;;5072696;28;20028;-83
2021/05/29 07:05:32;;;;;;;3.35;1.20;;;14.80;99.90;;;;;;5072868;28;20060;-83
2021/05/29 07:07:58;;;;;;;1.70;1.25;;;14.90;99.90;;;;;;5072596;28;20116;-84
2021/05/29 07:10:23;;;;;;;2.08;1.50;;;15.00;99.90;;;;;;5074337;28;20025;-84
2021/05/29 07:12:49;;;;;;;4.60;1.48;;;15.10;99.90;;;;;;5074308;28;20028;-84
2021/05/29 07:15:15;;;;;;;3.13;1.35;;;15.20;99.90;;;;;;5072380;28;20071;-84
2021/05/29 07:17:44;;;;;;;4.30;1.33;;;15.20;99.90;;;;;;5073694;28;20024;-84
2021/05/29 07:20:10;;;;;;;4.65;1.50;;;15.20;99.90;;;;;;5072410;28;20438;-83
2021/05/29 07:22:37;;;;;;;4.53;1.50;;;15.30;99.90;;;;;;5072328;28;20028;-83
2021/05/29 07:25:05;;;;;;;11.05;1.73;;;15.30;99.90;;;;;;5072256;28;20392;-83
2021/05/29 07:27:31;;;;;;;5.45;1.60;;;15.40;99.90;;;;;;5073561;28;20042;-83
2021/05/29 07:29:58;;;;;;;7.63;1.35;;;15.50;99.90;;;;;;5073571;28;20027;-84
2021/05/29 07:32:24;;;;;;;3.60;1.38;;;15.60;99.90;;;;;;5072304;28;20021;-83
2021/05/29 07:34:51;;;;;;;3.65;1.40;;;15.60;99.90;;;;;;5071311;28;20036;-84
2021/05/29 07:37:17;;;;;;;4.93;1.50;;;15.70;99.90;;;;;;5073324;28;20075;-83
2021/05/29 07:39:42;;;;;;;1.55;1.00;;;15.80;99.90;;;;;;5072202;28;20055;-83
2021/05/29 07:42:08;;;;;;;4.13;1.45;;;15.90;99.90;;;;;;5073426;28;20070;-84
2021/05/29 07:44:34;;;;;;;2.88;1.45;;;15.90;99.90;;;;;;5073594;28;20028;-83
2021/05/29 07:46:59;;;;;;;1.98;1.30;;;15.90;99.90;;;;;;5071951;28;20028;-84
2021/05/29 07:49:25;;;;;;;3.60;1.30;;;15.80;99.90;;;;;;5073522;28;20099;-84
2021/05/29 07:51:51;;;;;;;2.00;1.10;;;15.90;99.90;;;;;;5071987;28;20031;-84
2021/05/29 07:54:16;;;;;;;2.22;1.33;;;15.80;99.90;;;;;;5073201;28;20025;-83
2021/05/29 07:56:42;;;;;;;3.85;1.40;;;15.80;99.90;;;;;;5073083;28;20071;-84
2021/05/29 07:59:15;;;;;;;3.78;1.10;;;16.00;99.90;;;;;;5073130;28;20361;-82
2021/05/29 08:01:41;;;;;;;4.32;1.10;;;16.20;99.90;;;;;;5073489;28;20463;-83
2021/05/29 08:04:06;;;;;;;5.40;1.60;;;16.20;99.90;;;;;;5071944;28;20020;-86
2021/05/29 08:06:35;;;;;;;2.40;1.10;;;16.10;99.90;;;;;;5071905;28;20032;-83
2021/05/29 08:09:01;;;;;;;3.30;1.30;;;16.30;99.90;;;;;;5071867;28;20048;-83
2021/05/29 08:11:27;;;;;;;3.85;1.15;;;16.60;99.90;;;;;;5073633;28;20028;-83
2021/05/29 08:13:55;;;;;;;1.58;1.08;;;16.60;99.90;;;;;;5071765;28;20028;-83
2021/05/29 08:16:22;;;;;;;2.20;1.10;;;16.70;99.90;;;;;;5071681;28;20078;-83
2021/05/29 08:18:48;;;;;;;2.75;1.30;;;16.90;99.90;;;;;;5073255;28;20024;-83
2021/05/29 08:21:14;;;;;;;1.77;1.10;;;16.70;99.90;;;;;;5073010;28;20116;-83
2021/05/29 08:23:40;;;;;;;3.70;1.20;;;16.80;99.90;;;;;;5071688;28;20459;-83
2021/05/29 08:26:07;;;;;;;4.05;1.10;;;16.90;99.90;;;;;;5071638;28;20029;-83
2021/05/29 08:28:33;;;;;;;4.18;1.20;;;17.10;99.90;;;;;;5071659;28;20085;-83
2021/05/29 08:30:59;;;;;;;1.83;1.10;;;17.10;99.40;;;;;;5071626;28;20032;-83
2021/05/29 08:33:25;;;;;;;1.05;0.80;;;17.20;99.80;;;;;;5072638;28;20098;-83
2021/05/29 08:35:51;;;;;;;2.08;1.02;;;17.50;99.60;;;;;;5071478;28;20025;-83
2021/05/29 08:38:19;;;;;;;1.58;1.00;;;17.50;99.00;;;;;;5073068;28;20356;-83
2021/05/29 08:40:45;;;;;;;2.63;1.42;;;17.70;98.70;;;;;;5071503;28;20021;-83
2021/05/29 08:43:11;;;;;;;3.08;1.20;;;17.90;99.30;;;;;;5071479;28;20480;-83
2021/05/29 08:45:37;;;;;;;25.90;5.95;;;17.90;97.70;;;;;;5073690;28;20492;-83
2021/05/29 08:48:04;;;;;;;4.57;1.27;;;17.90;98.00;;;;;;5076545;28;20021;-83
2021/05/29 08:50:30;;;;;;;5.78;1.00;;;17.90;95.70;;;;;;5075383;28;20396;-84
2021/05/29 08:52:56;;;;;;;1.85;1.20;;;17.90;96.50;;;;;;5075110;28;20032;-84
2021/05/29 08:55:23;;;;;;;4.20;1.15;;;18.10;96.00;;;;;;5075283;28;20032;-85
2021/05/29 08:57:49;;;;;;;1.90;1.20;;;18.20;96.60;;;;;;5075056;28;20058;-82
2021/05/29 09:00:17;;;;;;;6.70;1.17;;;18.20;95.30;;;;;;5076461;28;20020;-83
2021/05/29 09:02:57;;;;;;;5.70;1.48;;;18.50;95.60;;;;;;5074937;28;20028;-83
2021/05/29 09:05:41;;;;;;;4.47;1.27;;;18.90;94.40;;;;;;5074972;28;20031;-83
2021/05/29 09:08:09;;;;;;;2.72;0.90;;;19.00;94.20;;;;;;5059405;28;20074;-83
2021/05/29 09:10:46;;;;;;;2.55;1.08;;;19.20;93.40;;;;;;5076141;28;20021;-83
2021/05/29 09:13:14;;;;;;;2.85;0.98;;;19.20;94.10;;;;;;5076688;28;20029;-83
2021/05/29 09:15:50;;;;;;;1.90;0.80;;;19.40;93.50;;;;;;5074680;28;20074;-82
2021/05/29 09:18:38;;;;;;;2.35;1.10;;;19.30;91.80;;;;;;5076307;28;20052;-83
2021/05/29 09:21:39;;;;;;;5.57;1.20;;;19.00;92.50;;;;;;5074702;28;20074;-83
2021/05/29 09:24:16;;;;;;;4.55;0.90;;;19.00;94.10;;;;;;5074713;28;20475;-82
2021/05/29 09:26:53;;;;;;;1.42;1.05;;;19.50;93.20;;;;;;5074413;28;20116;-83
2021/05/29 09:29:30;;;;;;;3.22;1.35;;;19.00;92.10;;;;;;5075788;28;20028;-83
2021/05/29 09:32:02;;;;;;;2.45;1.20;;;18.70;92.20;;;;;;5074646;28;20388;-83
2021/05/29 09:34:44;;;;;;;2.00;1.10;;;18.90;92.70;;;;;;5074603;28;20040;-82
2021/05/29 09:37:12;;;;;;;4.53;1.20;;;19.20;91.70;;;;;;5074314;28;20029;-83
2021/05/29 09:39:40;;;;;;;3.13;1.00;;;19.60;91.70;;;;;;5075574;28;20082;-83
2021/05/29 09:42:08;;;;;;;5.47;1.55;;;19.80;90.40;;;;;;5074288;28;20433;-83
2021/05/29 09:44:35;;;;;;;3.03;1.30;;;19.80;90.60;;;;;;5074207;28;20021;-83
2021/05/29 09:47:05;;;;;;;2.65;0.93;;;19.90;90.90;;;;;;5074148;28;20480;-83
2021/05/29 09:49:55;;;;;;;4.72;1.52;;;20.30;90.20;;;;;;5074222;28;20502;-83
2021/05/29 09:52:25;;;;;;;1.48;0.80;;;20.40;88.70;;;;;;5071453;28;20488;-83
2021/05/29 09:54:52;;;;;;;1.58;1.15;;;20.80;83.60;;;;;;5074973;28;20539;-83
2021/05/29 09:57:18;;;;;;;2.58;1.00;;;20.50;82.90;;;;;;5073159;28;20025;-84
2021/05/29 10:00:00;;;;;;;1.88;1.10;;;20.60;88.60;;;;;;5074011;28;20021;-83
2021/05/29 10:02:27;;;;;;;1.80;1.00;;;20.80;87.40;;;;;;5075512;28;20017;-83
2021/05/29 10:04:56;;;;;;;1.60;1.10;;;20.80;87.10;;;;;;5073805;28;20031;-83
2021/05/29 10:07:24;;;;;;;4.55;1.33;;;20.70;86.30;;;;;;5075066;28;20561;-83
2021/05/29 10:09:51;;;;;;;1.63;0.75;;;20.80;85.90;;;;;;5073725;28;20028;-83
2021/05/29 10:12:19;;;;;;;5.68;1.10;;;21.00;86.30;;;;;;5073611;28;20060;-83
2021/05/29 10:14:45;;;;;;;4.13;1.40;;;20.90;83.20;;;;;;5073593;28;20024;-83
2021/05/29 10:17:12;;;;;;;2.92;1.13;;;21.10;86.40;;;;;;5074869;28;20029;-83
2021/05/29 10:19:40;;;;;;;3.65;1.05;;;21.30;83.30;;;;;;5074846;28;20020;-83
2021/05/29 10:22:13;;;;;;;1.58;1.00;;;21.40;82.40;;;;;;5075188;28;20017;-83
2021/05/29 10:24:39;;;;;;;5.50;1.17;;;21.30;80.20;;;;;;5073574;28;20547;-83
2021/05/29 10:27:09;;;;;;;1.95;1.10;;;21.10;81.10;;;;;;5073424;28;20038;-83
2021/05/29 10:29:35;;;;;;;2.92;1.10;;;21.10;82.60;;;;;;5074734;28;20020;-84
2021/05/29 10:32:12;;;;;;;3.13;1.17;;;21.20;82.90;;;;;;5073412;28;20025;-84
2021/05/29 10:35:05;;;;;;;1.73;1.25;;;21.40;78.50;;;;;;5074532;28;20051;-83
2021/05/29 10:37:46;;;;;;;3.03;1.02;;;21.60;79.80;;;;;;5074299;28;20375;-84
2021/05/29 10:40:42;;;;;;;4.45;1.10;;;21.80;79.60;;;;;;5073156;28;20031;-84
2021/05/29 10:43:14;;;;;;;1.90;1.15;;;22.20;74.40;;;;;;5074120;28;20116;-83
2021/05/29 10:46:03;;;;;;;4.15;1.40;;;22.40;78.80;;;;;;5074481;28;20029;-84
2021/05/29 10:48:29;;;;;;;2.38;1.38;;;22.10;79.30;;;;;;5074338;28;20048;-84
2021/05/29 10:53:54;;;;;;;4.38;1.25;;;21.20;80.50;;;;;;5074786;28;20107;-83
2021/05/29 10:56:20;;;;;;;3.00;0.90;;;21.70;79.90;;;;;;5072817;28;20025;-84
2021/05/29 10:59:18;;;;;;;1.55;1.05;;;22.10;77.70;;;;;;5074051;28;20086;-83
2021/05/29 11:01:49;;;;;;;2.88;1.48;;;22.50;73.40;;;;;;5074022;28;20017;-84
2021/05/29 11:04:15;;;;;;;2.47;1.00;;;22.30;71.90;;;;;;5074230;28;20028;-84
2021/05/29 11:06:48;;;;;;;3.63;0.90;;;22.40;75.30;;;;;;5073912;28;20476;-83
2021/05/29 11:09:14;;;;;;;3.22;1.00;;;22.90;70.50;;;;;;5072564;28;20031;-84
2021/05/29 11:11:43;;;;;;;3.45;1.27;;;22.40;71.00;;;;;;5072555;28;20060;-84
2021/05/29 11:14:13;;;;;;;1.63;1.10;;;21.30;73.40;;;;;;5073788;28;20017;-84
2021/05/29 11:17:10;;;;;;;5.03;1.27;;;21.80;74.10;;;;;;5073697;28;20052;-83
2021/05/29 11:19:41;;;;;;;1.70;1.20;;;22.30;73.80;;;;;;5072054;28;20063;-84
2021/05/29 11:22:18;;;;;;;2.28;1.10;;;22.00;72.70;;;;;;5073671;28;20021;-84
2021/05/29 11:24:50;;;;;;;1.63;1.08;;;22.50;74.70;;;;;;5073936;28;20028;-84
2021/05/29 11:27:22;;;;;;;3.22;1.05;;;22.90;70.70;;;;;;5073579;28;20027;-84
2021/05/29 11:30:10;;;;;;;3.22;1.50;;;23.10;71.30;;;;;;5073536;28;20105;-84
2021/05/29 11:35:34;;;;;;;2.47;0.90;;;23.50;69.50;;;;;;5073472;28;20059;-85
2021/05/29 11:38:18;;;;;;;2.35;1.10;;;22.80;66.90;;;;;;5072501;28;20404;-85
2021/05/29 11:41:03;;;;;;;2.17;0.98;;;21.60;70.20;;;;;;5073714;28;20027;-83
2021/05/29 11:43:33;;;;;;;;;;;22.30;69.70;;;;;;5073754;28;20383;-84
2021/05/29 11:46:00;;;;;;;1.13;0.80;;;22.50;70.70;;;;;;5073240;28;20375;-83
2021/05/29 11:48:31;;;;;;;4.85;1.10;;;22.50;70.80;;;;;;5073283;28;20020;-84
2021/05/29 11:51:09;;;;;;;5.13;1.00;;;23.10;66.00;;;;;;5072036;28;20036;-84
2021/05/29 11:53:35;;;;;;;1.48;0.70;;;23.40;67.90;;;;;;5072027;28;20434;-83
2021/05/29 11:56:04;;;;;;;1.67;0.77;;;23.80;61.70;;;;;;5071921;28;20039;-84
2021/05/29 11:58:51;;;;;;;3.00;0.90;;;24.50;60.20;;;;;;5071868;28;20108;-84
2021/05/29 12:01:47;;;;;;;1.42;0.77;;;24.80;58.30;;;;;;5073443;28;20021;-84
2021/05/29 12:04:22;;;;;;;1.73;0.80;;;25.10;59.90;;;;;;5072862;28;20395;-84
2021/05/29 12:06:54;;;;;;;;;;;25.40;60.00;;;;;;5072263;28;20094;-84
2021/05/29 12:09:19;;;;;;;3.60;0.85;;;24.90;59.40;;;;;;5073083;28;20279;-84
2021/05/29 12:11:50;;;;;;;1.50;0.80;;;24.00;58.90;;;;;;5071829;28;20020;-84
2021/05/29 12:14:20;;;;;;;3.35;0.90;;;22.50;59.70;;;;;;5071937;28;20028;-84
2021/05/29 12:17:01;;;;;;;1.00;0.70;;;22.40;62.10;;;;;;5073396;28;20021;-83
2021/05/29 12:19:42;;;;;;;2.75;0.80;;;23.40;59.40;;;;;;5072178;28;20049;-84
2021/05/29 12:22:09;;;;;;;1.88;0.90;;;22.40;60.10;;;;;;5075905;28;20031;-84
2021/05/29 12:24:46;;;;;;;2.08;0.60;;;21.80;61.80;;;;;;5075782;28;20079;-84
2021/05/29 12:27:16;;;;;;;1.45;0.65;;;22.80;58.80;;;;;;5077057;28;20028;-84
2021/05/29 12:29:42;;;;;;;6.07;0.70;;;24.00;60.80;;;;;;5077317;28;20025;-85
2021/05/29 12:32:10;;;;;;;3.17;0.85;;;23.10;58.90;;;;;;5077059;28;20025;-83
2021/05/29 12:34:47;;;;;;;2.58;0.80;;;21.70;60.10;;;;;;5075498;28;20053;-84
2021/05/29 12:37:15;;;;;;;3.97;1.38;;;22.40;60.80;;;;;;5075493;28;20041;-83
2021/05/29 12:40:03;;;;;;;1.65;0.70;;;23.30;57.80;;;;;;5075557;28;20074;-84
2021/05/29 12:42:29;;;;;;;2.90;0.60;;;23.90;57.20;;;;;;5077042;28;20021;-84
2021/05/29 12:45:40;;;;;;;2.10;0.60;;;24.70;54.00;;;;;;5075433;28;20017;-84
2021/05/29 12:48:10;;;;;;;1.08;0.60;;;25.60;56.30;;;;;;5057983;28;20027;-83
2021/05/29 12:50:59;;;;;;;3.20;0.50;;;25.10;55.90;;;;;;5076390;28;20083;-83
2021/05/29 12:53:27;;;;;;;2.95;0.60;;;24.70;52.10;;;;;;5076787;28;20016;-84
2021/05/29 12:56:24;;;;;;;1.00;0.60;;;25.30;54.10;;;;;;5075155;28;20115;-83
2021/05/29 12:59:07;;;;;;;1.45;0.65;;;25.50;54.20;;;;;;5076211;28;20052;-84
2021/05/29 13:01:56;;;;;;;0.85;0.60;;;24.50;53.90;;;;;;5076654;28;20016;-84
2021/05/29 13:07:25;;;;;;;1.67;0.50;;;24.90;54.30;;;;;;5076351;28;20028;-84
2021/05/29 13:10:04;;;;;;;1.63;0.40;;;24.90;53.60;;;;;;5075015;28;20035;-84
2021/05/29 13:12:30;;;;;;;1.95;0.40;;;25.50;53.40;;;;;;5076533;28;20024;-83
2021/05/29 13:14:56;;;;;;;0.73;0.32;;;26.10;53.90;;;;;;5074860;28;20024;-83
2021/05/29 13:17:32;;;;;;;1.58;0.63;;;25.90;49.10;;;;;;5076056;28;20522;-83